sensor_id;sensor_type;location;lat;lon;timestamp;P1;durP1;ratioP1;P2;durP2;ratioP2
55455;SDS011;63021;52.836;6.376;2023-04-25T00:01:35;19.13;;;5.03;;
55455;SDS011;63021;52.836;6.376;2023-04-25T00:04:02;16.08;;;4.43;;
55455;SDS011;63021;52.836;6.376;2023-04-25T00:06:28;14.82;;;3.47;;
55455;SDS011;63021;52.836;6.376;2023-04-25T00:08:55;21.98;;;4.00;;
55455;SDS011;63021;52.836;6.376;2023-04-25T00:11:21;24.13;;;4.45;;
55455;SDS011;63021;52.836;6.376;2023-04-25T00:13:47;14.32;;;4.07;;
55455;SDS011;63021;52.836;6.376;2023-04-25T00:16:14;20.33;;;4.78;;
55455;SDS011;63021;52.836;6.376;2023-04-25T00:18:41;24.88;;;5.28;;
55455;SDS011;63021;52.836;6.376;2023-04-25T00:21:08;22.92;;;4.57;;
55455;SDS011;63021;52.836;6.376;2023-04-25T00:23:33;15.77;;;4.65;;
55455;SDS011;63021;52.836;6.376;2023-04-25T00:26:01;16.42;;;4.03;;
55455;SDS011;63021;52.836;6.376;2023-04-25T00:28:27;17.30;;;4.22;;
55455;SDS011;63021;52.836;6.376;2023-04-25T00:30:52;17.92;;;4.03;;
55455;SDS011;63021;52.836;6.376;2023-04-25T00:33:18;17.92;;;4.50;;
55455;SDS011;63021;52.836;6.376;2023-04-25T00:35:43;16.52;;;3.42;;
55455;SDS011;63021;52.836;6.376;2023-04-25T00:38:09;13.40;;;3.90;;
55455;SDS011;63021;52.836;6.376;2023-04-25T00:40:34;20.48;;;4.20;;
55455;SDS011;63021;52.836;6.376;2023-04-25T00:43:00;12.57;;;3.80;;
55455;SDS011;63021;52.836;6.376;2023-04-25T00:45:28;15.77;;;4.13;;
55455;SDS011;63021;52.836;6.376;2023-04-25T00:47:55;14.63;;;4.32;;
55455;SDS011;63021;52.836;6.376;2023-04-25T00:50:21;19.50;;;4.13;;
55455;SDS011;63021;52.836;6.376;2023-04-25T00:52:46;24.20;;;4.50;;
55455;SDS011;63021;52.836;6.376;2023-04-25T00:55:12;18.83;;;4.63;;
55455;SDS011;63021;52.836;6.376;2023-04-25T00:57:38;17.20;;;3.97;;
55455;SDS011;63021;52.836;6.376;2023-04-25T01:00:05;16.90;;;4.18;;
55455;SDS011;63021;52.836;6.376;2023-04-25T01:02:35;19.33;;;4.40;;
55455;SDS011;63021;52.836;6.376;2023-04-25T01:05:01;15.93;;;4.70;;
55455;SDS011;63021;52.836;6.376;2023-04-25T01:07:27;20.95;;;5.25;;
55455;SDS011;63021;52.836;6.376;2023-04-25T01:09:52;17.77;;;4.22;;
55455;SDS011;63021;52.836;6.376;2023-04-25T01:12:18;25.77;;;4.57;;
55455;SDS011;63021;52.836;6.376;2023-04-25T01:14:43;19.65;;;4.25;;
55455;SDS011;63021;52.836;6.376;2023-04-25T01:17:11;17.20;;;4.22;;
55455;SDS011;63021;52.836;6.376;2023-04-25T01:19:37;22.67;;;6.07;;
55455;SDS011;63021;52.836;6.376;2023-04-25T01:22:03;18.67;;;4.20;;
55455;SDS011;63021;52.836;6.376;2023-04-25T01:24:31;14.38;;;3.65;;
55455;SDS011;63021;52.836;6.376;2023-04-25T01:26:58;13.60;;;3.75;;
55455;SDS011;63021;52.836;6.376;2023-04-25T01:29:25;17.52;;;5.07;;
55455;SDS011;63021;52.836;6.376;2023-04-25T01:31:52;22.40;;;5.93;;
55455;SDS011;63021;52.836;6.376;2023-04-25T01:34:18;18.50;;;3.72;;
55455;SDS011;63021;52.836;6.376;2023-04-25T01:36:44;30.10;;;3.75;;
55455;SDS011;63021;52.836;6.376;2023-04-25T01:39:10;15.38;;;3.92;;
55455;SDS011;63021;52.836;6.376;2023-04-25T01:41:35;17.23;;;2.90;;
55455;SDS011;63021;52.836;6.376;2023-04-25T01:44:01;17.00;;;3.38;;
55455;SDS011;63021;52.836;6.376;2023-04-25T01:46:27;17.73;;;3.65;;
55455;SDS011;63021;52.836;6.376;2023-04-25T01:48:55;15.05;;;4.55;;
55455;SDS011;63021;52.836;6.376;2023-04-25T01:51:21;14.75;;;3.78;;
55455;SDS011;63021;52.836;6.376;2023-04-25T01:53:46;18.15;;;4.45;;
55455;SDS011;63021;52.836;6.376;2023-04-25T01:56:15;20.55;;;4.00;;
55455;SDS011;63021;52.836;6.376;2023-04-25T01:58:40;15.77;;;2.85;;
55455;SDS011;63021;52.836;6.376;2023-04-25T02:01:06;14.77;;;3.30;;
55455;SDS011;63021;52.836;6.376;2023-04-25T02:03:31;14.82;;;3.85;;
55455;SDS011;63021;52.836;6.376;2023-04-25T02:06:00;12.90;;;3.35;;
55455;SDS011;63021;52.836;6.376;2023-04-25T02:08:26;26.52;;;3.38;;
55455;SDS011;63021;52.836;6.376;2023-04-25T02:10:51;11.80;;;3.90;;
55455;SDS011;63021;52.836;6.376;2023-04-25T02:13:17;19.08;;;4.03;;
55455;SDS011;63021;52.836;6.376;2023-04-25T02:15:42;12.75;;;3.22;;
55455;SDS011;63021;52.836;6.376;2023-04-25T02:18:08;9.60;;;3.13;;
55455;SDS011;63021;52.836;6.376;2023-04-25T02:20:35;14.15;;;3.10;;
55455;SDS011;63021;52.836;6.376;2023-04-25T02:23:01;15.63;;;3.45;;
55455;SDS011;63021;52.836;6.376;2023-04-25T02:25:27;17.77;;;3.95;;
55455;SDS011;63021;52.836;6.376;2023-04-25T02:27:52;10.38;;;2.78;;
55455;SDS011;63021;52.836;6.376;2023-04-25T02:30:18;14.35;;;3.85;;
55455;SDS011;63021;52.836;6.376;2023-04-25T02:32:44;13.60;;;3.08;;
55455;SDS011;63021;52.836;6.376;2023-04-25T02:35:10;13.88;;;4.22;;
55455;SDS011;63021;52.836;6.376;2023-04-25T02:37:36;14.13;;;3.92;;
55455;SDS011;63021;52.836;6.376;2023-04-25T02:40:03;11.13;;;2.42;;
55455;SDS011;63021;52.836;6.376;2023-04-25T02:42:29;12.68;;;3.03;;
55455;SDS011;63021;52.836;6.376;2023-04-25T02:44:55;7.72;;;2.72;;
55455;SDS011;63021;52.836;6.376;2023-04-25T02:47:20;12.75;;;2.63;;
55455;SDS011;63021;52.836;6.376;2023-04-25T02:49:46;14.90;;;2.13;;
55455;SDS011;63021;52.836;6.376;2023-04-25T02:52:11;12.02;;;2.85;;
55455;SDS011;63021;52.836;6.376;2023-04-25T02:54:37;16.42;;;3.83;;
55455;SDS011;63021;52.836;6.376;2023-04-25T02:57:03;18.40;;;3.25;;
55455;SDS011;63021;52.836;6.376;2023-04-25T02:59:29;9.88;;;2.50;;
55455;SDS011;63021;52.836;6.376;2023-04-25T03:01:54;6.82;;;2.28;;
55455;SDS011;63021;52.836;6.376;2023-04-25T03:04:20;15.00;;;3.10;;
55455;SDS011;63021;52.836;6.376;2023-04-25T03:06:46;17.13;;;3.50;;
55455;SDS011;63021;52.836;6.376;2023-04-25T03:09:11;19.50;;;3.20;;
55455;SDS011;63021;52.836;6.376;2023-04-25T03:11:38;16.67;;;2.88;;
55455;SDS011;63021;52.836;6.376;2023-04-25T03:14:03;9.52;;;2.67;;
55455;SDS011;63021;52.836;6.376;2023-04-25T03:16:29;13.35;;;3.30;;
55455;SDS011;63021;52.836;6.376;2023-04-25T03:18:54;5.75;;;2.13;;
55455;SDS011;63021;52.836;6.376;2023-04-25T03:21:20;15.90;;;3.03;;
55455;SDS011;63021;52.836;6.376;2023-04-25T03:23:46;11.05;;;2.60;;
55455;SDS011;63021;52.836;6.376;2023-04-25T03:26:12;12.98;;;3.00;;
55455;SDS011;63021;52.836;6.376;2023-04-25T03:28:37;14.70;;;2.95;;
55455;SDS011;63021;52.836;6.376;2023-04-25T03:31:04;6.18;;;2.28;;
55455;SDS011;63021;52.836;6.376;2023-04-25T03:33:30;10.55;;;2.65;;
55455;SDS011;63021;52.836;6.376;2023-04-25T03:35:55;12.35;;;2.33;;
55455;SDS011;63021;52.836;6.376;2023-04-25T03:38:21;9.43;;;2.40;;
55455;SDS011;63021;52.836;6.376;2023-04-25T03:40:46;10.73;;;2.42;;
55455;SDS011;63021;52.836;6.376;2023-04-25T03:43:12;9.48;;;2.30;;
55455;SDS011;63021;52.836;6.376;2023-04-25T03:45:37;6.80;;;1.95;;
55455;SDS011;63021;52.836;6.376;2023-04-25T03:48:03;15.82;;;3.25;;
55455;SDS011;63021;52.836;6.376;2023-04-25T03:50:29;8.85;;;2.58;;
55455;SDS011;63021;52.836;6.376;2023-04-25T03:52:54;7.53;;;2.22;;
55455;SDS011;63021;52.836;6.376;2023-04-25T03:55:20;6.75;;;2.65;;
55455;SDS011;63021;52.836;6.376;2023-04-25T03:57:45;6.78;;;2.10;;
55455;SDS011;63021;52.836;6.376;2023-04-25T04:00:11;8.77;;;2.28;;
55455;SDS011;63021;52.836;6.376;2023-04-25T04:02:38;11.27;;;2.40;;
55455;SDS011;63021;52.836;6.376;2023-04-25T04:05:04;3.53;;;2.15;;
55455;SDS011;63021;52.836;6.376;2023-04-25T04:07:30;7.90;;;2.40;;
55455;SDS011;63021;52.836;6.376;2023-04-25T04:10:00;9.43;;;2.72;;
55455;SDS011;63021;52.836;6.376;2023-04-25T04:12:26;13.45;;;2.38;;
55455;SDS011;63021;52.836;6.376;2023-04-25T04:14:51;8.27;;;2.28;;
55455;SDS011;63021;52.836;6.376;2023-04-25T04:17:18;13.13;;;2.72;;
55455;SDS011;63021;52.836;6.376;2023-04-25T04:19:43;15.93;;;3.28;;
55455;SDS011;63021;52.836;6.376;2023-04-25T04:22:09;12.48;;;2.67;;
55455;SDS011;63021;52.836;6.376;2023-04-25T04:24:35;10.38;;;2.28;;
55455;SDS011;63021;52.836;6.376;2023-04-25T04:27:03;13.45;;;2.08;;
55455;SDS011;63021;52.836;6.376;2023-04-25T04:29:29;9.45;;;2.58;;
55455;SDS011;63021;52.836;6.376;2023-04-25T04:31:54;9.38;;;2.25;;
55455;SDS011;63021;52.836;6.376;2023-04-25T04:34:20;12.20;;;2.88;;
55455;SDS011;63021;52.836;6.376;2023-04-25T04:36:45;17.15;;;3.45;;
55455;SDS011;63021;52.836;6.376;2023-04-25T04:39:12;10.60;;;3.42;;
55455;SDS011;63021;52.836;6.376;2023-04-25T04:41:38;10.57;;;3.63;;
55455;SDS011;63021;52.836;6.376;2023-04-25T04:44:04;17.08;;;2.50;;
55455;SDS011;63021;52.836;6.376;2023-04-25T04:46:31;18.20;;;3.97;;
55455;SDS011;63021;52.836;6.376;2023-04-25T04:49:05;9.00;;;2.33;;
55455;SDS011;63021;52.836;6.376;2023-04-25T04:51:30;15.57;;;3.30;;
55455;SDS011;63021;52.836;6.376;2023-04-25T04:53:56;12.65;;;2.80;;
55455;SDS011;63021;52.836;6.376;2023-04-25T04:56:23;9.13;;;2.83;;
55455;SDS011;63021;52.836;6.376;2023-04-25T04:58:50;5.72;;;2.35;;
55455;SDS011;63021;52.836;6.376;2023-04-25T05:01:16;10.35;;;2.80;;
55455;SDS011;63021;52.836;6.376;2023-04-25T05:03:41;18.23;;;2.55;;
55455;SDS011;63021;52.836;6.376;2023-04-25T05:06:07;9.52;;;3.08;;
55455;SDS011;63021;52.836;6.376;2023-04-25T05:08:36;8.75;;;2.58;;
55455;SDS011;63021;52.836;6.376;2023-04-25T05:11:02;11.88;;;2.35;;
55455;SDS011;63021;52.836;6.376;2023-04-25T05:13:28;11.65;;;2.97;;
55455;SDS011;63021;52.836;6.376;2023-04-25T05:15:53;9.25;;;3.53;;
55455;SDS011;63021;52.836;6.376;2023-04-25T05:18:18;8.07;;;2.25;;
55455;SDS011;63021;52.836;6.376;2023-04-25T05:20:44;17.33;;;2.72;;
55455;SDS011;63021;52.836;6.376;2023-04-25T05:23:09;12.43;;;2.90;;
55455;SDS011;63021;52.836;6.376;2023-04-25T05:25:35;13.05;;;2.22;;
55455;SDS011;63021;52.836;6.376;2023-04-25T05:28:01;8.25;;;2.10;;
55455;SDS011;63021;52.836;6.376;2023-04-25T05:30:27;7.50;;;2.10;;
55455;SDS011;63021;52.836;6.376;2023-04-25T05:32:53;9.88;;;3.28;;
55455;SDS011;63021;52.836;6.376;2023-04-25T05:35:18;9.95;;;2.40;;
55455;SDS011;63021;52.836;6.376;2023-04-25T05:37:44;9.75;;;2.85;;
55455;SDS011;63021;52.836;6.376;2023-04-25T05:40:09;10.68;;;2.58;;
55455;SDS011;63021;52.836;6.376;2023-04-25T05:42:35;11.88;;;2.53;;
55455;SDS011;63021;52.836;6.376;2023-04-25T05:45:02;12.98;;;2.50;;
55455;SDS011;63021;52.836;6.376;2023-04-25T05:47:28;14.32;;;2.88;;
55455;SDS011;63021;52.836;6.376;2023-04-25T05:49:53;7.93;;;3.15;;
55455;SDS011;63021;52.836;6.376;2023-04-25T05:52:19;11.90;;;3.60;;
55455;SDS011;63021;52.836;6.376;2023-04-25T05:54:44;7.97;;;3.22;;
55455;SDS011;63021;52.836;6.376;2023-04-25T05:57:19;6.68;;;2.65;;
55455;SDS011;63021;52.836;6.376;2023-04-25T05:59:48;12.38;;;3.28;;
55455;SDS011;63021;52.836;6.376;2023-04-25T06:02:13;9.30;;;2.22;;
55455;SDS011;63021;52.836;6.376;2023-04-25T06:04:42;5.57;;;2.30;;
55455;SDS011;63021;52.836;6.376;2023-04-25T06:07:08;12.38;;;2.35;;
55455;SDS011;63021;52.836;6.376;2023-04-25T06:09:33;10.20;;;2.25;;
55455;SDS011;63021;52.836;6.376;2023-04-25T06:11:59;15.30;;;2.60;;
55455;SDS011;63021;52.836;6.376;2023-04-25T06:14:26;10.90;;;2.03;;
55455;SDS011;63021;52.836;6.376;2023-04-25T06:16:51;11.40;;;2.63;;
55455;SDS011;63021;52.836;6.376;2023-04-25T06:19:17;13.10;;;2.97;;
55455;SDS011;63021;52.836;6.376;2023-04-25T06:21:43;7.65;;;3.38;;
55455;SDS011;63021;52.836;6.376;2023-04-25T06:24:09;17.40;;;2.90;;
55455;SDS011;63021;52.836;6.376;2023-04-25T06:26:34;13.45;;;2.38;;
55455;SDS011;63021;52.836;6.376;2023-04-25T06:29:02;9.73;;;2.80;;
55455;SDS011;63021;52.836;6.376;2023-04-25T06:31:28;9.52;;;1.98;;
55455;SDS011;63021;52.836;6.376;2023-04-25T06:33:54;10.65;;;2.40;;
55455;SDS011;63021;52.836;6.376;2023-04-25T06:36:22;9.98;;;2.35;;
55455;SDS011;63021;52.836;6.376;2023-04-25T06:38:56;6.78;;;2.00;;
55455;SDS011;63021;52.836;6.376;2023-04-25T06:41:24;8.32;;;2.05;;
55455;SDS011;63021;52.836;6.376;2023-04-25T06:43:50;7.63;;;2.75;;
55455;SDS011;63021;52.836;6.376;2023-04-25T06:46:21;11.40;;;1.70;;
55455;SDS011;63021;52.836;6.376;2023-04-25T06:48:46;7.30;;;1.60;;
55455;SDS011;63021;52.836;6.376;2023-04-25T06:51:12;7.70;;;1.98;;
55455;SDS011;63021;52.836;6.376;2023-04-25T06:53:43;6.75;;;1.77;;
55455;SDS011;63021;52.836;6.376;2023-04-25T06:56:09;9.35;;;1.85;;
55455;SDS011;63021;52.836;6.376;2023-04-25T06:58:35;11.82;;;3.15;;
55455;SDS011;63021;52.836;6.376;2023-04-25T07:01:00;5.15;;;1.77;;
55455;SDS011;63021;52.836;6.376;2023-04-25T07:03:26;4.05;;;1.35;;
55455;SDS011;63021;52.836;6.376;2023-04-25T07:05:51;4.82;;;1.50;;
55455;SDS011;63021;52.836;6.376;2023-04-25T07:08:20;3.95;;;1.08;;
55455;SDS011;63021;52.836;6.376;2023-04-25T07:10:48;2.55;;;1.27;;
55455;SDS011;63021;52.836;6.376;2023-04-25T07:13:14;3.42;;;1.58;;
55455;SDS011;63021;52.836;6.376;2023-04-25T07:15:39;4.93;;;1.73;;
55455;SDS011;63021;52.836;6.376;2023-04-25T07:18:05;10.57;;;2.13;;
55455;SDS011;63021;52.836;6.376;2023-04-25T07:20:30;5.05;;;1.63;;
55455;SDS011;63021;52.836;6.376;2023-04-25T07:22:57;7.53;;;1.98;;
55455;SDS011;63021;52.836;6.376;2023-04-25T07:25:26;5.28;;;1.95;;
55455;SDS011;63021;52.836;6.376;2023-04-25T07:27:51;6.72;;;1.73;;
55455;SDS011;63021;52.836;6.376;2023-04-25T07:30:24;4.35;;;1.50;;
55455;SDS011;63021;52.836;6.376;2023-04-25T07:32:50;5.38;;;1.50;;
55455;SDS011;63021;52.836;6.376;2023-04-25T07:35:16;10.00;;;2.00;;
55455;SDS011;63021;52.836;6.376;2023-04-25T07:37:42;5.90;;;2.10;;
55455;SDS011;63021;52.836;6.376;2023-04-25T07:40:08;9.52;;;2.40;;
55455;SDS011;63021;52.836;6.376;2023-04-25T07:42:34;11.95;;;1.88;;
55455;SDS011;63021;52.836;6.376;2023-04-25T07:45:00;3.70;;;1.40;;
55455;SDS011;63021;52.836;6.376;2023-04-25T07:47:26;5.13;;;1.25;;
55455;SDS011;63021;52.836;6.376;2023-04-25T07:49:51;10.77;;;1.90;;
55455;SDS011;63021;52.836;6.376;2023-04-25T07:52:17;4.82;;;1.50;;
55455;SDS011;63021;52.836;6.376;2023-04-25T07:54:43;4.82;;;1.20;;
55455;SDS011;63021;52.836;6.376;2023-04-25T07:57:08;8.18;;;1.33;;
55455;SDS011;63021;52.836;6.376;2023-04-25T07:59:34;6.07;;;1.08;;
55455;SDS011;63021;52.836;6.376;2023-04-25T08:02:00;9.95;;;1.90;;
55455;SDS011;63021;52.836;6.376;2023-04-25T08:04:26;4.47;;;1.63;;
55455;SDS011;63021;52.836;6.376;2023-04-25T08:06:52;10.32;;;1.65;;
55455;SDS011;63021;52.836;6.376;2023-04-25T08:09:18;10.55;;;3.00;;
55455;SDS011;63021;52.836;6.376;2023-04-25T08:11:44;12.60;;;1.80;;
55455;SDS011;63021;52.836;6.376;2023-04-25T08:14:11;4.28;;;1.92;;
55455;SDS011;63021;52.836;6.376;2023-04-25T08:16:37;5.20;;;1.25;;
55455;SDS011;63021;52.836;6.376;2023-04-25T08:19:03;3.65;;;1.20;;
55455;SDS011;63021;52.836;6.376;2023-04-25T08:21:28;3.28;;;1.38;;
55455;SDS011;63021;52.836;6.376;2023-04-25T08:23:54;4.75;;;1.42;;
55455;SDS011;63021;52.836;6.376;2023-04-25T08:26:20;3.30;;;1.30;;
55455;SDS011;63021;52.836;6.376;2023-04-25T08:28:46;6.15;;;1.40;;
55455;SDS011;63021;52.836;6.376;2023-04-25T08:31:11;2.40;;;1.10;;
55455;SDS011;63021;52.836;6.376;2023-04-25T08:33:37;6.97;;;1.80;;
55455;SDS011;63021;52.836;6.376;2023-04-25T08:36:03;6.32;;;1.38;;
55455;SDS011;63021;52.836;6.376;2023-04-25T08:38:29;3.88;;;1.40;;
55455;SDS011;63021;52.836;6.376;2023-04-25T08:40:57;6.88;;;1.80;;
55455;SDS011;63021;52.836;6.376;2023-04-25T08:43:25;12.55;;;2.42;;
55455;SDS011;63021;52.836;6.376;2023-04-25T08:45:54;5.82;;;1.50;;
55455;SDS011;63021;52.836;6.376;2023-04-25T08:48:24;7.05;;;1.70;;
55455;SDS011;63021;52.836;6.376;2023-04-25T08:50:55;9.85;;;2.92;;
55455;SDS011;63021;52.836;6.376;2023-04-25T08:53:22;5.65;;;1.63;;
55455;SDS011;63021;52.836;6.376;2023-04-25T08:55:52;4.97;;;1.60;;
55455;SDS011;63021;52.836;6.376;2023-04-25T08:58:20;5.45;;;1.77;;
55455;SDS011;63021;52.836;6.376;2023-04-25T09:00:46;5.80;;;1.70;;
55455;SDS011;63021;52.836;6.376;2023-04-25T09:03:18;4.50;;;1.67;;
55455;SDS011;63021;52.836;6.376;2023-04-25T09:05:43;9.23;;;2.13;;
55455;SDS011;63021;52.836;6.376;2023-04-25T09:08:09;6.97;;;2.08;;
55455;SDS011;63021;52.836;6.376;2023-04-25T09:10:35;10.40;;;2.10;;
55455;SDS011;63021;52.836;6.376;2023-04-25T09:18:37;4.03;;;1.35;;
55455;SDS011;63021;52.836;6.376;2023-04-25T09:21:10;12.48;;;2.20;;
55455;SDS011;63021;52.836;6.376;2023-04-25T09:23:40;5.35;;;1.42;;
55455;SDS011;63021;52.836;6.376;2023-04-25T09:26:17;5.88;;;1.90;;
55455;SDS011;63021;52.836;6.376;2023-04-25T09:28:44;6.82;;;2.15;;
55455;SDS011;63021;52.836;6.376;2023-04-25T09:31:10;8.93;;;1.90;;
55455;SDS011;63021;52.836;6.376;2023-04-25T09:33:37;4.78;;;1.67;;
55455;SDS011;63021;52.836;6.376;2023-04-25T09:36:09;8.13;;;2.03;;
55455;SDS011;63021;52.836;6.376;2023-04-25T09:38:44;4.97;;;1.60;;
55455;SDS011;63021;52.836;6.376;2023-04-25T09:41:11;11.90;;;1.90;;
55455;SDS011;63021;52.836;6.376;2023-04-25T09:43:40;15.82;;;3.60;;
55455;SDS011;63021;52.836;6.376;2023-04-25T09:46:10;4.30;;;1.48;;
55455;SDS011;63021;52.836;6.376;2023-04-25T09:48:43;9.05;;;1.70;;
55455;SDS011;63021;52.836;6.376;2023-04-25T09:51:15;12.73;;;2.28;;
55455;SDS011;63021;52.836;6.376;2023-04-25T09:53:42;6.45;;;1.67;;
55455;SDS011;63021;52.836;6.376;2023-04-25T09:56:11;4.20;;;1.52;;
55455;SDS011;63021;52.836;6.376;2023-04-25T09:58:44;5.03;;;2.08;;
55455;SDS011;63021;52.836;6.376;2023-04-25T10:01:10;4.50;;;1.50;;
55455;SDS011;63021;52.836;6.376;2023-04-25T10:03:37;7.80;;;1.58;;
55455;SDS011;63021;52.836;6.376;2023-04-25T10:06:13;7.50;;;1.50;;
55455;SDS011;63021;52.836;6.376;2023-04-25T10:08:43;10.15;;;2.05;;
55455;SDS011;63021;52.836;6.376;2023-04-25T10:11:10;7.10;;;1.50;;
55455;SDS011;63021;52.836;6.376;2023-04-25T10:13:43;8.68;;;2.05;;
55455;SDS011;63021;52.836;6.376;2023-04-25T10:16:10;10.38;;;3.28;;
55455;SDS011;63021;52.836;6.376;2023-04-25T10:18:36;8.15;;;2.00;;
55455;SDS011;63021;52.836;6.376;2023-04-25T10:21:03;5.30;;;2.22;;
55455;SDS011;63021;52.836;6.376;2023-04-25T10:23:30;9.85;;;1.58;;
55455;SDS011;63021;52.836;6.376;2023-04-25T10:25:59;6.47;;;2.40;;
55455;SDS011;63021;52.836;6.376;2023-04-25T10:28:26;5.68;;;1.77;;
55455;SDS011;63021;52.836;6.376;2023-04-25T10:31:00;10.07;;;1.98;;
55455;SDS011;63021;52.836;6.376;2023-04-25T10:33:37;4.47;;;1.48;;
55455;SDS011;63021;52.836;6.376;2023-04-25T10:36:11;8.57;;;1.70;;
55455;SDS011;63021;52.836;6.376;2023-04-25T10:38:38;6.13;;;1.63;;
55455;SDS011;63021;52.836;6.376;2023-04-25T10:41:06;5.90;;;2.65;;
55455;SDS011;63021;52.836;6.376;2023-04-25T10:46:01;7.78;;;2.08;;
55455;SDS011;63021;52.836;6.376;2023-04-25T10:48:30;6.50;;;2.05;;
55455;SDS011;63021;52.836;6.376;2023-04-25T10:51:09;9.80;;;2.45;;
55455;SDS011;63021;52.836;6.376;2023-04-25T10:53:36;7.78;;;2.33;;
55455;SDS011;63021;52.836;6.376;2023-04-25T10:56:17;11.65;;;2.25;;
55455;SDS011;63021;52.836;6.376;2023-04-25T10:58:45;9.38;;;3.10;;
55455;SDS011;63021;52.836;6.376;2023-04-25T11:01:12;4.88;;;1.80;;
55455;SDS011;63021;52.836;6.376;2023-04-25T11:03:49;6.30;;;1.73;;
55455;SDS011;63021;52.836;6.376;2023-04-25T11:06:37;8.23;;;2.65;;
55455;SDS011;63021;52.836;6.376;2023-04-25T11:09:16;9.60;;;1.87;;
55455;SDS011;63021;52.836;6.376;2023-04-25T11:11:42;5.25;;;1.50;;
55455;SDS011;63021;52.836;6.376;2023-04-25T11:14:08;11.05;;;2.05;;
55455;SDS011;63021;52.836;6.376;2023-04-25T11:16:36;9.32;;;2.70;;
55455;SDS011;63021;52.836;6.376;2023-04-25T11:19:02;9.60;;;2.63;;
55455;SDS011;63021;52.836;6.376;2023-04-25T11:21:28;6.95;;;1.50;;
55455;SDS011;63021;52.836;6.376;2023-04-25T11:23:56;3.78;;;1.42;;
55455;SDS011;63021;52.836;6.376;2023-04-25T11:26:22;7.22;;;1.55;;
55455;SDS011;63021;52.836;6.376;2023-04-25T11:28:49;6.88;;;1.60;;
55455;SDS011;63021;52.836;6.376;2023-04-25T11:31:15;5.72;;;2.13;;
55455;SDS011;63021;52.836;6.376;2023-04-25T11:33:40;4.53;;;1.42;;
55455;SDS011;63021;52.836;6.376;2023-04-25T11:36:07;4.18;;;1.35;;
55455;SDS011;63021;52.836;6.376;2023-04-25T11:38:33;5.85;;;1.70;;
55455;SDS011;63021;52.836;6.376;2023-04-25T11:40:59;7.82;;;1.60;;
55455;SDS011;63021;52.836;6.376;2023-04-25T11:43:27;9.35;;;2.00;;
55455;SDS011;63021;52.836;6.376;2023-04-25T11:45:56;10.00;;;1.85;;
55455;SDS011;63021;52.836;6.376;2023-04-25T11:48:27;4.43;;;1.40;;
55455;SDS011;63021;52.836;6.376;2023-04-25T11:50:53;5.93;;;1.85;;
55455;SDS011;63021;52.836;6.376;2023-04-25T11:53:19;12.93;;;1.55;;
55455;SDS011;63021;52.836;6.376;2023-04-25T11:55:44;9.18;;;1.67;;
55455;SDS011;63021;52.836;6.376;2023-04-25T11:58:10;6.72;;;1.60;;
55455;SDS011;63021;52.836;6.376;2023-04-25T12:00:38;4.68;;;1.30;;
55455;SDS011;63021;52.836;6.376;2023-04-25T12:03:10;6.80;;;1.35;;
55455;SDS011;63021;52.836;6.376;2023-04-25T12:05:40;5.15;;;1.45;;
55455;SDS011;63021;52.836;6.376;2023-04-25T12:08:10;5.50;;;1.48;;
55455;SDS011;63021;52.836;6.376;2023-04-25T12:10:37;3.47;;;1.55;;
55455;SDS011;63021;52.836;6.376;2023-04-25T12:13:22;7.90;;;1.40;;
55455;SDS011;63021;52.836;6.376;2023-04-25T12:15:49;3.53;;;1.90;;
55455;SDS011;63021;52.836;6.376;2023-04-25T12:18:18;6.18;;;1.50;;
55455;SDS011;63021;52.836;6.376;2023-04-25T12:20:45;5.30;;;2.22;;
55455;SDS011;63021;52.836;6.376;2023-04-25T12:23:10;3.95;;;1.27;;
55455;SDS011;63021;52.836;6.376;2023-04-25T12:25:38;8.40;;;1.67;;
55455;SDS011;63021;52.836;6.376;2023-04-25T12:28:13;6.07;;;1.63;;
55455;SDS011;63021;52.836;6.376;2023-04-25T12:30:52;4.07;;;1.10;;
55455;SDS011;63021;52.836;6.376;2023-04-25T12:33:21;3.05;;;1.48;;
55455;SDS011;63021;52.836;6.376;2023-04-25T12:35:50;8.32;;;1.70;;
55455;SDS011;63021;52.836;6.376;2023-04-25T12:38:34;3.35;;;1.35;;
55455;SDS011;63021;52.836;6.376;2023-04-25T12:41:05;10.23;;;3.28;;
55455;SDS011;63021;52.836;6.376;2023-04-25T12:43:36;5.30;;;1.90;;
55455;SDS011;63021;52.836;6.376;2023-04-25T12:46:04;3.10;;;1.40;;
55455;SDS011;63021;52.836;6.376;2023-04-25T12:48:30;4.78;;;1.30;;
55455;SDS011;63021;52.836;6.376;2023-04-25T12:50:59;2.90;;;1.35;;
55455;SDS011;63021;52.836;6.376;2023-04-25T12:53:25;5.05;;;1.40;;
55455;SDS011;63021;52.836;6.376;2023-04-25T12:55:50;5.88;;;1.55;;
55455;SDS011;63021;52.836;6.376;2023-04-25T12:58:17;7.75;;;1.58;;
55455;SDS011;63021;52.836;6.376;2023-04-25T13:00:44;3.70;;;1.35;;
55455;SDS011;63021;52.836;6.376;2023-04-25T13:03:13;4.07;;;1.38;;
55455;SDS011;63021;52.836;6.376;2023-04-25T13:05:42;6.75;;;1.52;;
55455;SDS011;63021;52.836;6.376;2023-04-25T13:08:08;3.15;;;1.30;;
55455;SDS011;63021;52.836;6.376;2023-04-25T13:10:34;7.05;;;1.65;;
55455;SDS011;63021;52.836;6.376;2023-04-25T13:13:00;4.43;;;1.50;;
55455;SDS011;63021;52.836;6.376;2023-04-25T13:15:27;4.85;;;1.55;;
55455;SDS011;63021;52.836;6.376;2023-04-25T13:17:53;8.13;;;2.22;;
55455;SDS011;63021;52.836;6.376;2023-04-25T13:20:21;5.93;;;2.17;;
55455;SDS011;63021;52.836;6.376;2023-04-25T13:22:47;11.32;;;2.88;;
55455;SDS011;63021;52.836;6.376;2023-04-25T13:25:13;8.65;;;2.17;;
55455;SDS011;63021;52.836;6.376;2023-04-25T13:27:39;10.85;;;2.15;;
55455;SDS011;63021;52.836;6.376;2023-04-25T13:30:05;4.90;;;1.55;;
55455;SDS011;63021;52.836;6.376;2023-04-25T13:32:34;2.88;;;1.10;;
55455;SDS011;63021;52.836;6.376;2023-04-25T13:35:01;5.10;;;1.27;;
55455;SDS011;63021;52.836;6.376;2023-04-25T13:37:28;4.65;;;1.27;;
55455;SDS011;63021;52.836;6.376;2023-04-25T13:39:54;8.77;;;1.92;;
55455;SDS011;63021;52.836;6.376;2023-04-25T13:42:21;5.28;;;1.70;;
55455;SDS011;63021;52.836;6.376;2023-04-25T13:44:46;8.52;;;1.40;;
55455;SDS011;63021;52.836;6.376;2023-04-25T13:47:12;5.78;;;1.30;;
55455;SDS011;63021;52.836;6.376;2023-04-25T13:49:39;7.35;;;1.48;;
55455;SDS011;63021;52.836;6.376;2023-04-25T13:52:04;6.47;;;1.73;;
55455;SDS011;63021;52.836;6.376;2023-04-25T13:54:31;5.07;;;1.65;;
55455;SDS011;63021;52.836;6.376;2023-04-25T13:56:56;7.15;;;2.30;;
55455;SDS011;63021;52.836;6.376;2023-04-25T13:59:24;7.55;;;1.60;;
55455;SDS011;63021;52.836;6.376;2023-04-25T14:01:53;9.50;;;2.03;;
55455;SDS011;63021;52.836;6.376;2023-04-25T14:04:19;6.10;;;2.00;;
55455;SDS011;63021;52.836;6.376;2023-04-25T14:06:45;9.73;;;1.45;;
55455;SDS011;63021;52.836;6.376;2023-04-25T14:09:10;3.38;;;1.40;;
55455;SDS011;63021;52.836;6.376;2023-04-25T14:11:38;4.63;;;1.70;;
55455;SDS011;63021;52.836;6.376;2023-04-25T14:14:04;4.88;;;1.08;;
55455;SDS011;63021;52.836;6.376;2023-04-25T14:16:30;7.40;;;2.03;;
55455;SDS011;63021;52.836;6.376;2023-04-25T14:18:57;5.88;;;1.38;;
55455;SDS011;63021;52.836;6.376;2023-04-25T14:21:26;7.45;;;1.40;;
55455;SDS011;63021;52.836;6.376;2023-04-25T14:23:53;3.00;;;1.23;;
55455;SDS011;63021;52.836;6.376;2023-04-25T14:26:19;4.40;;;1.50;;
55455;SDS011;63021;52.836;6.376;2023-04-25T14:28:44;4.80;;;1.67;;
55455;SDS011;63021;52.836;6.376;2023-04-25T14:31:10;11.20;;;2.70;;
55455;SDS011;63021;52.836;6.376;2023-04-25T14:33:38;4.50;;;1.45;;
55455;SDS011;63021;52.836;6.376;2023-04-25T14:36:10;5.65;;;1.75;;
55455;SDS011;63021;52.836;6.376;2023-04-25T14:38:36;5.68;;;1.40;;
55455;SDS011;63021;52.836;6.376;2023-04-25T14:41:01;5.45;;;1.55;;
55455;SDS011;63021;52.836;6.376;2023-04-25T14:43:27;3.28;;;1.45;;
55455;SDS011;63021;52.836;6.376;2023-04-25T14:45:52;5.72;;;1.90;;
55455;SDS011;63021;52.836;6.376;2023-04-25T14:48:18;7.93;;;2.90;;
55455;SDS011;63021;52.836;6.376;2023-04-25T14:50:44;6.50;;;1.75;;